Date,TemperatureHighF,TemperatureAvgF,TemperatureLowF,DewpointHighF,DewpointAvgF,DewpointLowF,HumidityHigh,HumidityAvg,HumidityLow,PressureMaxIn,PressureMinIn,WindSpeedMaxMPH,WindSpeedAvgMPH,GustSpeedMaxMPH,PrecipitationSumIn
2013-10-1,80.4,64.9,52.8,57.7,50.6,42.9,91,64,30,29.82,29.73,7,1,8,0.00
2013-10-2,81.4,64.5,51.5,54.7,47.7,41.9,87,59,26,29.81,29.73,9,0,9,0.00
2013-10-3,76.9,64.4,51.0,47.5,36.2,24.7,74,39,15,29.85,29.70,13,4,22,0.00
2013-10-4,84.2,67.0,51.5,40.1,34.4,28.0,62,32,17,29.92,29.80,11,2,15,0.00
2013-10-5,86.3,66.2,47.8,44.7,36.3,28.8,62,36,16,30.03,29.92,5,0,8,0.00
2013-10-6,88.4,68.7,51.6,44.2,38.4,31.5,53,36,14,29.96,29.82,5,0,6,0.00
2013-10-7,88.6,69.0,50.6,45.5,38.3,34.2,64,35,16,29.82,29.67,5,0,8,0.00
2013-10-8,76.7,62.9,49.9,45.8,40.5,35.7,66,46,26,29.70,29.48,7,1,11,0.00
2013-10-9,74.8,61.6,49.7,44.6,41.7,37.9,68,50,32,29.57,29.40,12,1,12,0.00
2013-10-10,74.2,61.0,50.2,48.0,44.4,41.8,76,56,35,29.81,29.57,14,2,14,0.00
2013-10-11,78.8,62.1,46.7,49.2,45.4,41.8,85,57,32,29.89,29.78,8,0,8,0.00
2013-10-12,79.3,61.9,47.2,48.6,44.5,41.7,84,56,29,29.81,29.68,11,1,11,0.00
2013-10-13,76.6,61.1,49.1,49.7,44.7,41.1,88,58,31,29.86,29.71,11,1,12,0.00
2013-10-14,78.7,61.9,45.2,46.0,41.8,38.7,84,52,25,29.94,29.83,7,0,8,0.00
2013-10-15,83.1,63.9,50.2,43.4,39.2,36.5,67,44,20,29.86,29.76,10,1,11,0.00
2013-10-16,54.9,53.0,51.0,40.0,38.2,33.8,63,57,48,29.84,29.80,2,0,4,0.00
2013-10-17,82.5,65.1,48.7,44.4,40.1,37.2,73,43,21,29.90,29.78,3,0,10,0.00
2013-10-18,85.6,64.6,46.7,46.0,40.4,36.8,73,44,21,29.87,29.78,4,0,10,0.00
2013-10-19,86.8,67.0,48.0,46.0,41.7,38.2,74,43,21,29.90,29.81,6,0,6,0.00
2013-10-20,85.6,66.1,49.8,45.4,41.1,35.7,63,42,23,29.83,29.71,6,0,6,0.00
2013-10-21,85.8,66.1,50.5,49.4,44.0,39.2,67,48,24,29.81,29.72,6,0,8,0.00
2013-10-22,86.0,66.1,48.6,46.8,41.7,36.4,68,44,22,29.83,29.72,8,0,8,0.00
2013-10-23,85.0,64.9,46.9,43.8,39.0,34.7,70,42,19,29.75,29.67,7,0,7,0.00
2013-10-24,75.4,57.9,46.3,49.8,44.9,35.1,87,64,39,29.89,29.73,5,0,7,0.00
2013-10-25,54.9,47.9,45.1,47.1,43.7,41.7,91,85,75,29.98,29.89,5,0,5,0.00
2013-10-26,81.3,62.8,48.5,47.8,43.8,37.4,76,53,29,29.97,29.83,3,0,9,0.00
2013-10-27,75.5,58.0,45.9,49.8,43.6,38.3,76,61,34,29.83,29.41,8,3,20,0.00
2013-10-28,63.4,56.1,46.5,46.6,43.4,40.3,90,64,43,29.67,29.41,10,2,13,0.00
2013-10-29,66.8,57.5,49.8,47.8,45.3,42.8,79,65,47,29.86,29.67,9,1,9,0.00
2013-10-30,68.8,54.9,41.6,45.3,42.2,37.6,88,65,37,29.97,29.86,10,0,10,0.00
2013-10-31,73.2,55.9,42.1,45.6,42.4,38.2,89,64,36,30.00,29.90,8,0,10,0.00